sensor_id;sensor_type;location;lat;lon;timestamp;P1;durP1;ratioP1;P2;durP2;ratioP2
48574;SDS011;34352;51.084;3.712;2023-05-16T00:01:09;32.30;;;4.40;;
48574;SDS011;34352;51.084;3.712;2023-05-16T00:03:36;19.45;;;3.42;;
48574;SDS011;34352;51.084;3.712;2023-05-16T00:06:03;12.95;;;3.47;;
48574;SDS011;34352;51.084;3.712;2023-05-16T00:08:33;16.05;;;3.63;;
48574;SDS011;34352;51.084;3.712;2023-05-16T00:11:00;18.52;;;4.13;;
48574;SDS011;34352;51.084;3.712;2023-05-16T00:13:28;19.52;;;4.60;;
48574;SDS011;34352;51.084;3.712;2023-05-16T00:16:07;17.33;;;3.78;;
48574;SDS011;34352;51.084;3.712;2023-05-16T00:18:35;18.70;;;3.67;;
48574;SDS011;34352;51.084;3.712;2023-05-16T00:21:03;18.13;;;3.75;;
48574;SDS011;34352;51.084;3.712;2023-05-16T00:23:31;21.70;;;3.38;;
48574;SDS011;34352;51.084;3.712;2023-05-16T00:25:58;19.85;;;4.13;;
48574;SDS011;34352;51.084;3.712;2023-05-16T00:28:24;10.80;;;3.47;;
48574;SDS011;34352;51.084;3.712;2023-05-16T00:30:51;16.95;;;4.10;;
48574;SDS011;34352;51.084;3.712;2023-05-16T00:33:18;16.98;;;3.58;;
48574;SDS011;34352;51.084;3.712;2023-05-16T00:35:45;18.02;;;4.03;;
48574;SDS011;34352;51.084;3.712;2023-05-16T00:38:13;18.98;;;4.32;;
48574;SDS011;34352;51.084;3.712;2023-05-16T00:43:32;19.52;;;4.43;;
48574;SDS011;34352;51.084;3.712;2023-05-16T00:48:27;16.90;;;4.03;;
48574;SDS011;34352;51.084;3.712;2023-05-16T00:50:54;16.70;;;3.72;;
48574;SDS011;34352;51.084;3.712;2023-05-16T00:53:22;24.83;;;4.50;;
48574;SDS011;34352;51.084;3.712;2023-05-16T00:55:55;30.40;;;5.00;;
48574;SDS011;34352;51.084;3.712;2023-05-16T00:58:23;15.73;;;4.45;;
48574;SDS011;34352;51.084;3.712;2023-05-16T01:00:50;18.15;;;4.35;;
48574;SDS011;34352;51.084;3.712;2023-05-16T01:05:54;17.30;;;3.95;;
48574;SDS011;34352;51.084;3.712;2023-05-16T01:21:37;21.50;;;5.30;;
48574;SDS011;34352;51.084;3.712;2023-05-16T01:26:45;25.83;;;5.38;;
48574;SDS011;34352;51.084;3.712;2023-05-16T01:29:11;17.88;;;5.25;;
48574;SDS011;34352;51.084;3.712;2023-05-16T01:31:40;15.45;;;4.90;;
48574;SDS011;34352;51.084;3.712;2023-05-16T01:34:06;24.35;;;5.65;;
48574;SDS011;34352;51.084;3.712;2023-05-16T01:39:51;27.33;;;5.43;;
48574;SDS011;34352;51.084;3.712;2023-05-16T01:42:19;26.80;;;5.78;;
48574;SDS011;34352;51.084;3.712;2023-05-16T01:45:07;15.23;;;4.60;;
48574;SDS011;34352;51.084;3.712;2023-05-16T01:47:40;23.55;;;5.00;;
48574;SDS011;34352;51.084;3.712;2023-05-16T01:50:16;19.08;;;4.55;;
48574;SDS011;34352;51.084;3.712;2023-05-16T01:52:49;21.10;;;4.67;;
48574;SDS011;34352;51.084;3.712;2023-05-16T01:55:45;27.08;;;4.15;;
48574;SDS011;34352;51.084;3.712;2023-05-16T01:58:19;11.98;;;3.42;;
48574;SDS011;34352;51.084;3.712;2023-05-16T02:00:47;15.52;;;3.83;;
48574;SDS011;34352;51.084;3.712;2023-05-16T02:03:14;17.33;;;4.20;;
48574;SDS011;34352;51.084;3.712;2023-05-16T02:05:40;17.40;;;3.70;;
48574;SDS011;34352;51.084;3.712;2023-05-16T02:08:10;21.77;;;3.60;;
48574;SDS011;34352;51.084;3.712;2023-05-16T02:10:40;22.33;;;4.40;;
48574;SDS011;34352;51.084;3.712;2023-05-16T02:13:06;22.88;;;4.90;;
48574;SDS011;34352;51.084;3.712;2023-05-16T02:18:04;13.27;;;3.92;;
48574;SDS011;34352;51.084;3.712;2023-05-16T02:20:30;22.50;;;4.40;;
48574;SDS011;34352;51.084;3.712;2023-05-16T02:22:56;15.05;;;3.55;;
48574;SDS011;34352;51.084;3.712;2023-05-16T02:27:51;13.32;;;3.55;;
48574;SDS011;34352;51.084;3.712;2023-05-16T02:30:19;19.25;;;3.65;;
48574;SDS011;34352;51.084;3.712;2023-05-16T02:32:45;14.30;;;3.42;;
48574;SDS011;34352;51.084;3.712;2023-05-16T02:35:13;13.38;;;3.72;;
48574;SDS011;34352;51.084;3.712;2023-05-16T02:37:40;16.40;;;3.80;;
48574;SDS011;34352;51.084;3.712;2023-05-16T02:40:06;22.92;;;3.67;;
48574;SDS011;34352;51.084;3.712;2023-05-16T02:42:33;17.17;;;3.97;;
48574;SDS011;34352;51.084;3.712;2023-05-16T02:44:59;20.83;;;4.38;;
48574;SDS011;34352;51.084;3.712;2023-05-16T02:47:25;12.05;;;3.33;;
48574;SDS011;34352;51.084;3.712;2023-05-16T02:49:51;19.75;;;3.42;;
48574;SDS011;34352;51.084;3.712;2023-05-16T02:52:18;14.60;;;3.80;;
48574;SDS011;34352;51.084;3.712;2023-05-16T02:54:45;15.80;;;3.17;;
48574;SDS011;34352;51.084;3.712;2023-05-16T02:57:13;18.85;;;4.10;;
48574;SDS011;34352;51.084;3.712;2023-05-16T02:59:39;24.83;;;3.92;;
48574;SDS011;34352;51.084;3.712;2023-05-16T03:02:07;13.57;;;3.20;;
48574;SDS011;34352;51.084;3.712;2023-05-16T03:04:33;16.63;;;3.75;;
48574;SDS011;34352;51.084;3.712;2023-05-16T03:07:00;13.20;;;3.58;;
48574;SDS011;34352;51.084;3.712;2023-05-16T03:11:57;15.85;;;3.58;;
48574;SDS011;34352;51.084;3.712;2023-05-16T03:14:23;12.10;;;3.92;;
48574;SDS011;34352;51.084;3.712;2023-05-16T03:16:52;15.57;;;3.65;;
48574;SDS011;34352;51.084;3.712;2023-05-16T03:19:18;20.73;;;3.50;;
48574;SDS011;34352;51.084;3.712;2023-05-16T03:21:52;17.08;;;3.45;;
48574;SDS011;34352;51.084;3.712;2023-05-16T03:26:47;12.60;;;3.55;;
48574;SDS011;34352;51.084;3.712;2023-05-16T03:29:15;16.48;;;3.85;;
48574;SDS011;34352;51.084;3.712;2023-05-16T03:31:42;15.65;;;3.95;;
48574;SDS011;34352;51.084;3.712;2023-05-16T03:34:08;13.18;;;3.70;;
48574;SDS011;34352;51.084;3.712;2023-05-16T03:36:34;12.25;;;3.60;;
48574;SDS011;34352;51.084;3.712;2023-05-16T03:39:07;17.20;;;4.05;;
48574;SDS011;34352;51.084;3.712;2023-05-16T03:41:37;19.13;;;4.75;;
48574;SDS011;34352;51.084;3.712;2023-05-16T03:44:03;12.38;;;4.00;;
48574;SDS011;34352;51.084;3.712;2023-05-16T03:46:31;14.18;;;4.20;;
48574;SDS011;34352;51.084;3.712;2023-05-16T03:48:59;16.92;;;4.50;;
48574;SDS011;34352;51.084;3.712;2023-05-16T03:51:27;18.45;;;4.13;;
48574;SDS011;34352;51.084;3.712;2023-05-16T03:53:56;16.42;;;3.92;;
48574;SDS011;34352;51.084;3.712;2023-05-16T03:56:22;19.90;;;4.90;;
48574;SDS011;34352;51.084;3.712;2023-05-16T03:58:50;16.27;;;5.00;;
48574;SDS011;34352;51.084;3.712;2023-05-16T04:01:17;17.00;;;4.45;;
48574;SDS011;34352;51.084;3.712;2023-05-16T04:03:47;16.10;;;4.32;;
48574;SDS011;34352;51.084;3.712;2023-05-16T04:06:13;20.80;;;4.72;;
48574;SDS011;34352;51.084;3.712;2023-05-16T04:08:42;16.60;;;4.57;;
48574;SDS011;34352;51.084;3.712;2023-05-16T04:11:09;16.73;;;4.47;;
48574;SDS011;34352;51.084;3.712;2023-05-16T04:13:35;12.98;;;4.60;;
48574;SDS011;34352;51.084;3.712;2023-05-16T04:18:32;17.40;;;5.22;;
48574;SDS011;34352;51.084;3.712;2023-05-16T04:21:00;16.88;;;4.90;;
48574;SDS011;34352;51.084;3.712;2023-05-16T04:23:27;14.00;;;3.95;;
48574;SDS011;34352;51.084;3.712;2023-05-16T04:25:53;17.38;;;4.97;;
48574;SDS011;34352;51.084;3.712;2023-05-16T04:28:21;21.20;;;5.05;;
48574;SDS011;34352;51.084;3.712;2023-05-16T04:30:50;15.63;;;4.45;;
48574;SDS011;34352;51.084;3.712;2023-05-16T04:33:16;14.77;;;5.18;;
48574;SDS011;34352;51.084;3.712;2023-05-16T04:38:18;18.30;;;4.82;;
48574;SDS011;34352;51.084;3.712;2023-05-16T04:43:17;11.18;;;4.05;;
48574;SDS011;34352;51.084;3.712;2023-05-16T04:45:43;16.88;;;4.65;;
48574;SDS011;34352;51.084;3.712;2023-05-16T04:48:09;15.45;;;5.00;;
48574;SDS011;34352;51.084;3.712;2023-05-16T04:50:37;17.95;;;4.45;;
48574;SDS011;34352;51.084;3.712;2023-05-16T04:53:04;14.10;;;4.38;;
48574;SDS011;34352;51.084;3.712;2023-05-16T04:55:31;9.55;;;4.25;;
48574;SDS011;34352;51.084;3.712;2023-05-16T04:57:58;17.77;;;5.25;;
48574;SDS011;34352;51.084;3.712;2023-05-16T05:00:28;15.32;;;6.40;;
48574;SDS011;34352;51.084;3.712;2023-05-16T05:05:26;16.67;;;7.78;;
48574;SDS011;34352;51.084;3.712;2023-05-16T05:07:53;18.60;;;7.03;;
48574;SDS011;34352;51.084;3.712;2023-05-16T05:10:19;12.55;;;5.53;;
48574;SDS011;34352;51.084;3.712;2023-05-16T05:12:48;17.23;;;5.68;;
48574;SDS011;34352;51.084;3.712;2023-05-16T05:15:15;9.95;;;4.40;;
48574;SDS011;34352;51.084;3.712;2023-05-16T05:17:43;15.32;;;4.50;;
48574;SDS011;34352;51.084;3.712;2023-05-16T05:20:09;16.75;;;5.13;;
48574;SDS011;34352;51.084;3.712;2023-05-16T05:22:36;13.30;;;5.15;;
48574;SDS011;34352;51.084;3.712;2023-05-16T05:25:08;17.65;;;4.95;;
48574;SDS011;34352;51.084;3.712;2023-05-16T05:30:11;13.10;;;5.05;;
48574;SDS011;34352;51.084;3.712;2023-05-16T05:32:58;18.13;;;5.97;;
48574;SDS011;34352;51.084;3.712;2023-05-16T05:35:34;16.60;;;5.55;;
48574;SDS011;34352;51.084;3.712;2023-05-16T05:38:05;14.73;;;4.88;;
48574;SDS011;34352;51.084;3.712;2023-05-16T05:40:38;16.58;;;4.30;;
48574;SDS011;34352;51.084;3.712;2023-05-16T05:46:09;13.25;;;4.00;;
48574;SDS011;34352;51.084;3.712;2023-05-16T05:51:12;15.80;;;3.97;;
48574;SDS011;34352;51.084;3.712;2023-05-16T05:53:40;11.00;;;4.40;;
48574;SDS011;34352;51.084;3.712;2023-05-16T05:56:08;15.18;;;3.95;;
48574;SDS011;34352;51.084;3.712;2023-05-16T05:58:35;12.73;;;3.80;;
48574;SDS011;34352;51.084;3.712;2023-05-16T06:01:11;8.15;;;3.20;;
48574;SDS011;34352;51.084;3.712;2023-05-16T06:03:44;13.40;;;3.65;;
48574;SDS011;34352;51.084;3.712;2023-05-16T06:06:09;16.33;;;3.75;;
48574;SDS011;34352;51.084;3.712;2023-05-16T06:08:40;13.75;;;3.05;;
48574;SDS011;34352;51.084;3.712;2023-05-16T06:11:06;20.88;;;3.30;;
48574;SDS011;34352;51.084;3.712;2023-05-16T06:16:13;9.85;;;2.53;;
48574;SDS011;34352;51.084;3.712;2023-05-16T06:18:42;13.38;;;2.90;;
48574;SDS011;34352;51.084;3.712;2023-05-16T06:23:54;13.15;;;2.60;;
48574;SDS011;34352;51.084;3.712;2023-05-16T06:26:23;11.05;;;2.47;;
48574;SDS011;34352;51.084;3.712;2023-05-16T06:28:59;9.45;;;2.20;;
48574;SDS011;34352;51.084;3.712;2023-05-16T06:31:27;11.52;;;2.13;;
48574;SDS011;34352;51.084;3.712;2023-05-16T06:50:47;10.27;;;2.17;;
48574;SDS011;34352;51.084;3.712;2023-05-16T06:53:18;9.43;;;1.80;;
48574;SDS011;34352;51.084;3.712;2023-05-16T06:55:44;9.43;;;2.20;;
48574;SDS011;34352;51.084;3.712;2023-05-16T06:58:09;12.07;;;2.42;;
48574;SDS011;34352;51.084;3.712;2023-05-16T07:00:35;7.90;;;1.80;;
48574;SDS011;34352;51.084;3.712;2023-05-16T07:03:01;12.63;;;2.33;;
48574;SDS011;34352;51.084;3.712;2023-05-16T07:05:27;6.95;;;2.10;;
48574;SDS011;34352;51.084;3.712;2023-05-16T07:07:53;8.48;;;2.72;;
48574;SDS011;34352;51.084;3.712;2023-05-16T07:10:20;12.85;;;4.68;;
48574;SDS011;34352;51.084;3.712;2023-05-16T07:12:48;13.75;;;4.35;;
48574;SDS011;34352;51.084;3.712;2023-05-16T07:15:14;10.45;;;3.45;;
48574;SDS011;34352;51.084;3.712;2023-05-16T07:17:40;11.63;;;2.72;;
48574;SDS011;34352;51.084;3.712;2023-05-16T07:20:05;12.27;;;2.33;;
48574;SDS011;34352;51.084;3.712;2023-05-16T07:22:34;8.98;;;3.28;;
48574;SDS011;34352;51.084;3.712;2023-05-16T07:25:00;10.68;;;3.45;;
48574;SDS011;34352;51.084;3.712;2023-05-16T07:27:26;16.08;;;6.53;;
48574;SDS011;34352;51.084;3.712;2023-05-16T07:29:52;13.30;;;6.05;;
48574;SDS011;34352;51.084;3.712;2023-05-16T07:32:19;15.18;;;6.88;;
48574;SDS011;34352;51.084;3.712;2023-05-16T07:34:46;13.00;;;4.55;;
48574;SDS011;34352;51.084;3.712;2023-05-16T07:37:12;10.32;;;3.25;;
48574;SDS011;34352;51.084;3.712;2023-05-16T07:39:40;9.27;;;2.28;;
48574;SDS011;34352;51.084;3.712;2023-05-16T07:42:06;9.52;;;2.72;;
48574;SDS011;34352;51.084;3.712;2023-05-16T07:44:32;6.75;;;2.72;;
48574;SDS011;34352;51.084;3.712;2023-05-16T07:46:58;14.38;;;4.63;;
48574;SDS011;34352;51.084;3.712;2023-05-16T07:49:24;9.90;;;3.22;;
48574;SDS011;34352;51.084;3.712;2023-05-16T07:51:50;10.00;;;2.50;;
48574;SDS011;34352;51.084;3.712;2023-05-16T07:54:15;7.78;;;1.77;;
48574;SDS011;34352;51.084;3.712;2023-05-16T07:56:41;9.35;;;1.70;;
48574;SDS011;34352;51.084;3.712;2023-05-16T07:59:07;11.80;;;3.45;;
48574;SDS011;34352;51.084;3.712;2023-05-16T08:01:33;8.35;;;1.67;;
48574;SDS011;34352;51.084;3.712;2023-05-16T08:03:58;16.92;;;4.65;;
48574;SDS011;34352;51.084;3.712;2023-05-16T08:06:24;10.57;;;2.40;;
48574;SDS011;34352;51.084;3.712;2023-05-16T08:08:50;9.77;;;3.22;;
48574;SDS011;34352;51.084;3.712;2023-05-16T08:11:16;6.50;;;1.23;;
48574;SDS011;34352;51.084;3.712;2023-05-16T08:13:43;6.47;;;1.20;;
48574;SDS011;34352;51.084;3.712;2023-05-16T08:16:09;13.77;;;4.80;;
48574;SDS011;34352;51.084;3.712;2023-05-16T08:18:35;7.82;;;2.00;;
48574;SDS011;34352;51.084;3.712;2023-05-16T08:21:01;9.18;;;2.38;;
48574;SDS011;34352;51.084;3.712;2023-05-16T08:23:26;6.10;;;1.40;;
48574;SDS011;34352;51.084;3.712;2023-05-16T08:25:52;4.53;;;1.23;;
48574;SDS011;34352;51.084;3.712;2023-05-16T08:28:18;5.68;;;1.63;;
48574;SDS011;34352;51.084;3.712;2023-05-16T08:30:44;9.18;;;3.45;;
48574;SDS011;34352;51.084;3.712;2023-05-16T08:33:10;6.18;;;1.70;;
48574;SDS011;34352;51.084;3.712;2023-05-16T08:35:35;12.85;;;1.77;;
48574;SDS011;34352;51.084;3.712;2023-05-16T08:38:01;6.90;;;2.60;;
48574;SDS011;34352;51.084;3.712;2023-05-16T08:40:28;9.43;;;2.90;;
48574;SDS011;34352;51.084;3.712;2023-05-16T08:42:54;6.78;;;2.22;;
48574;SDS011;34352;51.084;3.712;2023-05-16T08:45:21;5.50;;;1.70;;
48574;SDS011;34352;51.084;3.712;2023-05-16T08:47:48;8.57;;;2.78;;
48574;SDS011;34352;51.084;3.712;2023-05-16T08:50:15;7.63;;;2.45;;
48574;SDS011;34352;51.084;3.712;2023-05-16T08:52:41;6.97;;;1.60;;
48574;SDS011;34352;51.084;3.712;2023-05-16T08:55:08;9.93;;;2.03;;
48574;SDS011;34352;51.084;3.712;2023-05-16T08:57:36;6.55;;;1.92;;
48574;SDS011;34352;51.084;3.712;2023-05-16T09:00:05;9.48;;;1.90;;
48574;SDS011;34352;51.084;3.712;2023-05-16T09:02:39;6.22;;;1.70;;
48574;SDS011;34352;51.084;3.712;2023-05-16T09:05:07;6.50;;;1.23;;
48574;SDS011;34352;51.084;3.712;2023-05-16T09:07:34;8.23;;;1.88;;
48574;SDS011;34352;51.084;3.712;2023-05-16T09:10:00;8.25;;;2.03;;
48574;SDS011;34352;51.084;3.712;2023-05-16T09:12:26;6.07;;;1.23;;
48574;SDS011;34352;51.084;3.712;2023-05-16T09:14:53;7.78;;;2.38;;
48574;SDS011;34352;51.084;3.712;2023-05-16T09:17:20;8.38;;;1.90;;
48574;SDS011;34352;51.084;3.712;2023-05-16T09:19:46;6.30;;;2.13;;
48574;SDS011;34352;51.084;3.712;2023-05-16T09:22:17;6.32;;;1.50;;
48574;SDS011;34352;51.084;3.712;2023-05-16T09:24:44;5.90;;;1.40;;
48574;SDS011;34352;51.084;3.712;2023-05-16T09:27:13;3.85;;;1.30;;
48574;SDS011;34352;51.084;3.712;2023-05-16T09:29:42;3.78;;;1.35;;
48574;SDS011;34352;51.084;3.712;2023-05-16T09:32:11;5.13;;;1.27;;
48574;SDS011;34352;51.084;3.712;2023-05-16T09:34:47;5.43;;;1.20;;
48574;SDS011;34352;51.084;3.712;2023-05-16T09:40:10;3.97;;;1.40;;
48574;SDS011;34352;51.084;3.712;2023-05-16T09:42:36;3.28;;;1.00;;
48574;SDS011;34352;51.084;3.712;2023-05-16T09:45:04;3.72;;;1.20;;
48574;SDS011;34352;51.084;3.712;2023-05-16T09:47:32;11.02;;;1.48;;
48574;SDS011;34352;51.084;3.712;2023-05-16T09:49:58;5.57;;;1.40;;
48574;SDS011;34352;51.084;3.712;2023-05-16T09:52:28;10.02;;;1.80;;
48574;SDS011;34352;51.084;3.712;2023-05-16T09:54:56;6.93;;;1.70;;
48574;SDS011;34352;51.084;3.712;2023-05-16T09:57:22;6.40;;;1.48;;
48574;SDS011;34352;51.084;3.712;2023-05-16T09:59:52;5.72;;;1.20;;
48574;SDS011;34352;51.084;3.712;2023-05-16T10:02:17;5.93;;;1.25;;
48574;SDS011;34352;51.084;3.712;2023-05-16T10:04:44;8.98;;;1.42;;
48574;SDS011;34352;51.084;3.712;2023-05-16T10:07:09;5.70;;;1.30;;
48574;SDS011;34352;51.084;3.712;2023-05-16T10:09:37;5.68;;;1.48;;
48574;SDS011;34352;51.084;3.712;2023-05-16T10:12:04;5.93;;;1.50;;
48574;SDS011;34352;51.084;3.712;2023-05-16T10:14:35;5.60;;;1.52;;
48574;SDS011;34352;51.084;3.712;2023-05-16T10:19:34;9.15;;;1.48;;
48574;SDS011;34352;51.084;3.712;2023-05-16T10:22:03;7.40;;;1.60;;
48574;SDS011;34352;51.084;3.712;2023-05-16T10:27:12;3.05;;;1.17;;
48574;SDS011;34352;51.084;3.712;2023-05-16T10:32:18;5.22;;;1.30;;
48574;SDS011;34352;51.084;3.712;2023-05-16T10:34:47;6.47;;;1.50;;
48574;SDS011;34352;51.084;3.712;2023-05-16T10:37:15;4.32;;;1.30;;
48574;SDS011;34352;51.084;3.712;2023-05-16T10:39:48;4.35;;;1.30;;
48574;SDS011;34352;51.084;3.712;2023-05-16T10:42:33;3.60;;;1.10;;
48574;SDS011;34352;51.084;3.712;2023-05-16T10:45:18;5.00;;;1.50;;
48574;SDS011;34352;51.084;3.712;2023-05-16T10:47:56;4.40;;;1.15;;
48574;SDS011;34352;51.084;3.712;2023-05-16T10:50:36;4.72;;;1.10;;
48574;SDS011;34352;51.084;3.712;2023-05-16T10:53:22;5.38;;;1.30;;
48574;SDS011;34352;51.084;3.712;2023-05-16T10:56:10;6.15;;;1.52;;
48574;SDS011;34352;51.084;3.712;2023-05-16T11:04:11;3.38;;;1.35;;
48574;SDS011;34352;51.084;3.712;2023-05-16T11:06:44;3.25;;;1.23;;
48574;SDS011;34352;51.084;3.712;2023-05-16T11:09:22;4.30;;;1.20;;
48574;SDS011;34352;51.084;3.712;2023-05-16T11:14:36;5.78;;;1.60;;
48574;SDS011;34352;51.084;3.712;2023-05-16T11:17:20;4.40;;;1.80;;
48574;SDS011;34352;51.084;3.712;2023-05-16T11:22:28;7.47;;;2.38;;
48574;SDS011;34352;51.084;3.712;2023-05-16T11:25:00;6.07;;;1.60;;
48574;SDS011;34352;51.084;3.712;2023-05-16T11:32:41;6.35;;;1.52;;
48574;SDS011;34352;51.084;3.712;2023-05-16T11:35:12;4.75;;;1.33;;
48574;SDS011;34352;51.084;3.712;2023-05-16T11:37:49;7.75;;;2.22;;
48574;SDS011;34352;51.084;3.712;2023-05-16T11:40:15;6.15;;;1.30;;
48574;SDS011;34352;51.084;3.712;2023-05-16T11:48:00;5.68;;;1.40;;
48574;SDS011;34352;51.084;3.712;2023-05-16T11:50:33;5.45;;;1.00;;
48574;SDS011;34352;51.084;3.712;2023-05-16T11:56:16;6.63;;;1.70;;
48574;SDS011;34352;51.084;3.712;2023-05-16T11:58:43;5.50;;;1.58;;
48574;SDS011;34352;51.084;3.712;2023-05-16T12:04:31;5.15;;;1.20;;
48574;SDS011;34352;51.084;3.712;2023-05-16T12:09:25;5.55;;;1.30;;
48574;SDS011;34352;51.084;3.712;2023-05-16T12:11:51;6.03;;;1.20;;
48574;SDS011;34352;51.084;3.712;2023-05-16T12:14:17;4.47;;;1.08;;
48574;SDS011;34352;51.084;3.712;2023-05-16T12:19:21;6.63;;;1.75;;
48574;SDS011;34352;51.084;3.712;2023-05-16T12:21:52;5.72;;;1.50;;
48574;SDS011;34352;51.084;3.712;2023-05-16T12:24:31;4.00;;;1.77;;
48574;SDS011;34352;51.084;3.712;2023-05-16T12:30:04;3.42;;;0.93;;
48574;SDS011;34352;51.084;3.712;2023-05-16T12:32:37;6.35;;;1.75;;
48574;SDS011;34352;51.084;3.712;2023-05-16T12:35:02;3.83;;;1.00;;
48574;SDS011;34352;51.084;3.712;2023-05-16T12:37:37;4.50;;;1.02;;
48574;SDS011;34352;51.084;3.712;2023-05-16T12:40:04;4.93;;;1.33;;
48574;SDS011;34352;51.084;3.712;2023-05-16T12:42:31;4.90;;;1.10;;
48574;SDS011;34352;51.084;3.712;2023-05-16T12:48:12;4.88;;;1.15;;
48574;SDS011;34352;51.084;3.712;2023-05-16T12:50:38;6.13;;;1.40;;
48574;SDS011;34352;51.084;3.712;2023-05-16T12:56:36;8.00;;;1.13;;
48574;SDS011;34352;51.084;3.712;2023-05-16T12:59:09;4.95;;;1.30;;
48574;SDS011;34352;51.084;3.712;2023-05-16T13:01:38;4.38;;;1.25;;
48574;SDS011;34352;51.084;3.712;2023-05-16T13:09:13;6.28;;;1.35;;
48574;SDS011;34352;51.084;3.712;2023-05-16T13:11:43;5.40;;;1.50;;
48574;SDS011;34352;51.084;3.712;2023-05-16T13:16:57;2.08;;;0.90;;
48574;SDS011;34352;51.084;3.712;2023-05-16T13:19:23;2.60;;;1.00;;
48574;SDS011;34352;51.084;3.712;2023-05-16T13:21:50;5.15;;;1.00;;
48574;SDS011;34352;51.084;3.712;2023-05-16T13:24:19;6.03;;;0.90;;
48574;SDS011;34352;51.084;3.712;2023-05-16T13:26:59;5.45;;;1.00;;
48574;SDS011;34352;51.084;3.712;2023-05-16T13:29:27;5.15;;;1.00;;
48574;SDS011;34352;51.084;3.712;2023-05-16T13:34:33;7.35;;;1.27;;
48574;SDS011;34352;51.084;3.712;2023-05-16T13:37:00;3.97;;;1.08;;
48574;SDS011;34352;51.084;3.712;2023-05-16T13:39:26;5.00;;;1.40;;
48574;SDS011;34352;51.084;3.712;2023-05-16T13:41:52;4.75;;;0.90;;
48574;SDS011;34352;51.084;3.712;2023-05-16T13:44:17;3.88;;;1.10;;
48574;SDS011;34352;51.084;3.712;2023-05-16T13:46:43;4.03;;;1.00;;
48574;SDS011;34352;51.084;3.712;2023-05-16T13:49:21;3.38;;;1.20;;
48574;SDS011;34352;51.084;3.712;2023-05-16T13:51:48;3.22;;;0.98;;
48574;SDS011;34352;51.084;3.712;2023-05-16T13:54:19;4.35;;;0.82;;
48574;SDS011;34352;51.084;3.712;2023-05-16T13:56:59;4.05;;;0.93;;
48574;SDS011;34352;51.084;3.712;2023-05-16T13:59:26;1.65;;;1.10;;
48574;SDS011;34352;51.084;3.712;2023-05-16T14:01:52;2.97;;;1.13;;
48574;SDS011;34352;51.084;3.712;2023-05-16T14:04:29;2.38;;;0.90;;
48574;SDS011;34352;51.084;3.712;2023-05-16T14:06:55;2.90;;;0.90;;
48574;SDS011;34352;51.084;3.712;2023-05-16T14:09:25;2.85;;;1.10;;
48574;SDS011;34352;51.084;3.712;2023-05-16T14:12:05;5.60;;;1.42;;
48574;SDS011;34352;51.084;3.712;2023-05-16T14:14:33;2.80;;;1.00;;
48574;SDS011;34352;51.084;3.712;2023-05-16T14:17:03;4.63;;;0.98;;
48574;SDS011;34352;51.084;3.712;2023-05-16T14:19:35;2.95;;;0.90;;
48574;SDS011;34352;51.084;3.712;2023-05-16T14:22:09;2.65;;;0.95;;
48574;SDS011;34352;51.084;3.712;2023-05-16T14:24:43;3.25;;;1.00;;
48574;SDS011;34352;51.084;3.712;2023-05-16T14:27:09;2.78;;;1.05;;
48574;SDS011;34352;51.084;3.712;2023-05-16T14:34:54;4.32;;;0.77;;
48574;SDS011;34352;51.084;3.712;2023-05-16T14:37:21;6.43;;;1.25;;
48574;SDS011;34352;51.084;3.712;2023-05-16T14:39:47;4.18;;;1.13;;
48574;SDS011;34352;51.084;3.712;2023-05-16T14:42:15;5.38;;;1.10;;
48574;SDS011;34352;51.084;3.712;2023-05-16T14:44:43;3.00;;;1.02;;
48574;SDS011;34352;51.084;3.712;2023-05-16T14:47:12;4.70;;;1.00;;
48574;SDS011;34352;51.084;3.712;2023-05-16T14:49:39;5.30;;;1.05;;
48574;SDS011;34352;51.084;3.712;2023-05-16T14:52:09;5.50;;;1.15;;
48574;SDS011;34352;51.084;3.712;2023-05-16T14:54:40;3.17;;;0.90;;
48574;SDS011;34352;51.084;3.712;2023-05-16T14:57:08;6.72;;;1.55;;
48574;SDS011;34352;51.084;3.712;2023-05-16T14:59:46;2.75;;;1.00;;
48574;SDS011;34352;51.084;3.712;2023-05-16T15:02:18;7.00;;;1.00;;
48574;SDS011;34352;51.084;3.712;2023-05-16T15:07:34;2.83;;;0.90;;
48574;SDS011;34352;51.084;3.712;2023-05-16T15:12:46;2.47;;;0.80;;
48574;SDS011;34352;51.084;3.712;2023-05-16T15:15:17;3.20;;;0.90;;
48574;SDS011;34352;51.084;3.712;2023-05-16T15:20:32;2.70;;;0.73;;
48574;SDS011;34352;51.084;3.712;2023-05-16T15:23:09;1.80;;;1.02;;
48574;SDS011;34352;51.084;3.712;2023-05-16T15:25:44;4.00;;;1.20;;
48574;SDS011;34352;51.084;3.712;2023-05-16T15:28:16;3.80;;;1.30;;
48574;SDS011;34352;51.084;3.712;2023-05-16T15:30:45;6.30;;;1.48;;
48574;SDS011;34352;51.084;3.712;2023-05-16T15:33:11;5.95;;;1.70;;
48574;SDS011;34352;51.084;3.712;2023-05-16T15:35:37;4.18;;;1.45;;
48574;SDS011;34352;51.084;3.712;2023-05-16T15:46:54;3.72;;;1.08;;
48574;SDS011;34352;51.084;3.712;2023-05-16T15:49:24;4.72;;;1.40;;
48574;SDS011;34352;51.084;3.712;2023-05-16T15:54:38;2.78;;;0.95;;
48574;SDS011;34352;51.084;3.712;2023-05-16T15:59:35;2.23;;;0.83;;
48574;SDS011;34352;51.084;3.712;2023-05-16T16:02:02;3.88;;;1.10;;
48574;SDS011;34352;51.084;3.712;2023-05-16T16:04:32;1.38;;;0.85;;
48574;SDS011;34352;51.084;3.712;2023-05-16T16:06:58;4.97;;;1.17;;
48574;SDS011;34352;51.084;3.712;2023-05-16T16:09:25;3.40;;;1.30;;
48574;SDS011;34352;51.084;3.712;2023-05-16T16:11:50;3.67;;;1.38;;
48574;SDS011;34352;51.084;3.712;2023-05-16T16:14:21;3.45;;;1.48;;
48574;SDS011;34352;51.084;3.712;2023-05-16T16:19:18;3.78;;;1.30;;
48574;SDS011;34352;51.084;3.712;2023-05-16T16:21:45;3.75;;;1.35;;
48574;SDS011;34352;51.084;3.712;2023-05-16T16:27:35;4.90;;;1.55;;
48574;SDS011;34352;51.084;3.712;2023-05-16T16:38:53;4.82;;;1.40;;
48574;SDS011;34352;51.084;3.712;2023-05-16T16:41:33;4.90;;;1.48;;
48574;SDS011;34352;51.084;3.712;2023-05-16T16:44:00;4.55;;;1.38;;
48574;SDS011;34352;51.084;3.712;2023-05-16T16:46:41;3.10;;;1.90;;
48574;SDS011;34352;51.084;3.712;2023-05-16T16:49:15;3.10;;;1.35;;
48574;SDS011;34352;51.084;3.712;2023-05-16T16:51:40;5.05;;;1.50;;
48574;SDS011;34352;51.084;3.712;2023-05-16T16:54:20;4.80;;;1.50;;
48574;SDS011;34352;51.084;3.712;2023-05-16T16:56:54;3.70;;;1.42;;
48574;SDS011;34352;51.084;3.712;2023-05-16T16:59:36;5.57;;;1.88;;
48574;SDS011;34352;51.084;3.712;2023-05-16T17:02:04;6.97;;;1.88;;
48574;SDS011;34352;51.084;3.712;2023-05-16T17:04:30;2.88;;;1.33;;
48574;SDS011;34352;51.084;3.712;2023-05-16T17:15:59;3.75;;;1.73;;
48574;SDS011;34352;51.084;3.712;2023-05-16T17:33:11;4.68;;;2.30;;
48574;SDS011;34352;51.084;3.712;2023-05-16T18:22:22;18.38;;;7.35;;
48574;SDS011;34352;51.084;3.712;2023-05-16T18:24:58;11.18;;;5.78;;
48574;SDS011;34352;51.084;3.712;2023-05-16T18:27:32;14.68;;;6.07;;
48574;SDS011;34352;51.084;3.712;2023-05-16T18:29:59;13.15;;;5.57;;
48574;SDS011;34352;51.084;3.712;2023-05-16T18:32:27;16.77;;;6.13;;
48574;SDS011;34352;51.084;3.712;2023-05-16T18:35:01;11.05;;;6.38;;
48574;SDS011;34352;51.084;3.712;2023-05-16T18:37:33;10.63;;;6.38;;
48574;SDS011;34352;51.084;3.712;2023-05-16T18:40:00;12.75;;;6.05;;
48574;SDS011;34352;51.084;3.712;2023-05-16T18:44:56;11.70;;;5.50;;
48574;SDS011;34352;51.084;3.712;2023-05-16T18:47:37;12.60;;;5.72;;
48574;SDS011;34352;51.084;3.712;2023-05-16T18:50:06;12.50;;;5.63;;
48574;SDS011;34352;51.084;3.712;2023-05-16T18:52:33;11.68;;;5.55;;
48574;SDS011;34352;51.084;3.712;2023-05-16T18:57:44;14.15;;;5.65;;
48574;SDS011;34352;51.084;3.712;2023-05-16T19:00:10;9.25;;;5.43;;
48574;SDS011;34352;51.084;3.712;2023-05-16T19:02:37;11.82;;;5.13;;
48574;SDS011;34352;51.084;3.712;2023-05-16T19:05:06;11.50;;;6.18;;
48574;SDS011;34352;51.084;3.712;2023-05-16T19:07:46;15.63;;;6.40;;
48574;SDS011;34352;51.084;3.712;2023-05-16T19:10:16;10.90;;;5.63;;